sensor_id;sensor_type;location;lat;lon;timestamp;P1;P2;P0
53698;PMS7003;39591;53.952;27.612;2023-03-01T00:01:24;5.5;3.9;2.9
53698;PMS7003;39591;53.952;27.612;2023-03-01T00:06:37;5.9;4.1;3.4
53698;PMS7003;39591;53.952;27.612;2023-03-01T00:11:43;6.3;5.1;4
53698;PMS7003;39591;53.952;27.612;2023-03-01T00:16:59;4.9;4.3;3.4
53698;PMS7003;39591;53.952;27.612;2023-03-01T00:21:43;5.7;4;3.2
53698;PMS7003;39591;53.952;27.612;2023-03-01T00:26:37;5.2;3.7;2.8
53698;PMS7003;39591;53.952;27.612;2023-03-01T00:31:59;5.5;4;3
53698;PMS7003;39591;53.952;27.612;2023-03-01T00:36:43;4.5;3.2;2.2
53698;PMS7003;39591;53.952;27.612;2023-03-01T00:41:59;5.4;3.8;2.8
53698;PMS7003;39591;53.952;27.612;2023-03-01T00:46:24;4.4;3.1;2.4
53698;PMS7003;39591;53.952;27.612;2023-03-01T00:51:10;4.7;3.3;2.7
53698;PMS7003;39591;53.952;27.612;2023-03-01T00:56:31;2.9;2.6;2.1
53698;PMS7003;39591;53.952;27.612;2023-03-01T01:01:41;4.4;2.2;1.3
53698;PMS7003;39591;53.952;27.612;2023-03-01T01:06:59;3.6;2.9;2.2
53698;PMS7003;39591;53.952;27.612;2023-03-01T01:11:59;3.4;2.7;2.1
53698;PMS7003;39591;53.952;27.612;2023-03-01T01:16:37;3;2.3;1.8
53698;PMS7003;39591;53.952;27.612;2023-03-01T01:21:10;3;2.4;2
53698;PMS7003;39591;53.952;27.612;2023-03-01T01:26:22;3;2.4;1.8
53698;PMS7003;39591;53.952;27.612;2023-03-01T01:31:42;4;2.7;2.1
53698;PMS7003;39591;53.952;27.612;2023-03-01T01:36:59;2.8;2.1;1.5
53698;PMS7003;39591;53.952;27.612;2023-03-01T01:41:21;4.1;2.6;2
53698;PMS7003;39591;53.952;27.612;2023-03-01T01:46:37;3.7;2.5;2.2
53698;PMS7003;39591;53.952;27.612;2023-03-01T01:51:22;3.5;2.7;2.1
53698;PMS7003;39591;53.952;27.612;2023-03-01T01:56:44;3.4;2.3;1.7
53698;PMS7003;39591;53.952;27.612;2023-03-01T02:02:00;2.4;1.5;1.3
53698;PMS7003;39591;53.952;27.612;2023-03-01T02:06:26;2.8;2.3;1.9
53698;PMS7003;39591;53.952;27.612;2023-03-01T02:11:09;3.1;1.9;1.5
53698;PMS7003;39591;53.952;27.612;2023-03-01T02:16:23;3.4;2.1;1.6
53698;PMS7003;39591;53.952;27.612;2023-03-01T02:21:29;3.9;2.3;1.8
53698;PMS7003;39591;53.952;27.612;2023-03-01T02:26:59;3.5;2.5;1.8
53698;PMS7003;39591;53.952;27.612;2023-03-01T02:31:37;3;2.3;1.9
53698;PMS7003;39591;53.952;27.612;2023-03-01T02:36:32;2.8;2;1.8
53698;PMS7003;39591;53.952;27.612;2023-03-01T02:41:09;3.2;1.7;1.3
53698;PMS7003;39591;53.952;27.612;2023-03-01T02:47:00;2.9;2.2;1.8
53698;PMS7003;39591;53.952;27.612;2023-03-01T02:52:04;3.1;2.1;1.7
53698;PMS7003;39591;53.952;27.612;2023-03-01T02:56:09;3;1.9;1.6
53698;PMS7003;39591;53.952;27.612;2023-03-01T03:01:09;3.1;2.7;2
53698;PMS7003;39591;53.952;27.612;2023-03-01T03:06:45;2.9;1.7;1.4
53698;PMS7003;39591;53.952;27.612;2023-03-01T03:11:43;2.5;1.4;1.1
53698;PMS7003;39591;53.952;27.612;2023-03-01T03:16:59;3.6;2.1;1.5
53698;PMS7003;39591;53.952;27.612;2023-03-01T03:21:23;2.6;1.8;1.3
53698;PMS7003;39591;53.952;27.612;2023-03-01T03:26:23;2.5;1.6;1.3
53698;PMS7003;39591;53.952;27.612;2023-03-01T03:31:31;4.1;2.4;1.7
53698;PMS7003;39591;53.952;27.612;2023-03-01T03:36:43;3.4;1.6;1.3
53698;PMS7003;39591;53.952;27.612;2023-03-01T03:41:59;2.5;1.6;1.3
53698;PMS7003;39591;53.952;27.612;2023-03-01T03:46:23;2.9;1.5;1.2
53698;PMS7003;39591;53.952;27.612;2023-03-01T03:51:35;1.3;1;0.7
53698;PMS7003;39591;53.952;27.612;2023-03-01T03:56:09;1.8;0.9;0.8
53698;PMS7003;39591;53.952;27.612;2023-03-01T04:01:41;1.3;0.9;0.9
53698;PMS7003;39591;53.952;27.612;2023-03-01T04:06:57;2.4;0.8;0.5
53698;PMS7003;39591;53.952;27.612;2023-03-01T04:11:23;1.5;0.6;0.5
53698;PMS7003;39591;53.952;27.612;2023-03-01T04:16:24;1.6;0.7;0.4
53698;PMS7003;39591;53.952;27.612;2023-03-01T04:21:09;2.8;0.6;0.5
53698;PMS7003;39591;53.952;27.612;2023-03-01T04:26:43;1.2;0.8;0.7
53698;PMS7003;39591;53.952;27.612;2023-03-01T04:31:59;1.3;0.7;0.6
53698;PMS7003;39591;53.952;27.612;2023-03-01T04:36:22;1.8;0.9;0.5
53698;PMS7003;39591;53.952;27.612;2023-03-01T04:41:23;1.4;1.1;0.8
53698;PMS7003;39591;53.952;27.612;2023-03-01T04:46:21;1.1;0.7;0.4
53698;PMS7003;39591;53.952;27.612;2023-03-01T04:51:43;2.3;1;0.8
53698;PMS7003;39591;53.952;27.612;2023-03-01T04:56:57;2;0.9;0.6
53698;PMS7003;39591;53.952;27.612;2023-03-01T05:01:09;1;0.8;0.6
53698;PMS7003;39591;53.952;27.612;2023-03-01T05:06:09;2.5;1;0.7
53698;PMS7003;39591;53.952;27.612;2023-03-01T05:11:35;1.3;0.9;0.8
53698;PMS7003;39591;53.952;27.612;2023-03-01T05:16:41;1.6;0.8;0.5
53698;PMS7003;39591;53.952;27.612;2023-03-01T05:21:55;1.2;0.5;0.3
53698;PMS7003;39591;53.952;27.612;2023-03-01T05:26:29;1.8;0.9;0.6
53698;PMS7003;39591;53.952;27.612;2023-03-01T05:31:35;1.8;0.8;0.6
53698;PMS7003;39591;53.952;27.612;2023-03-01T05:36:19;1.6;1;0.4
53698;PMS7003;39591;53.952;27.612;2023-03-01T05:41:41;1.4;0.5;0.3
53698;PMS7003;39591;53.952;27.612;2023-03-01T05:46:59;1;0.3;0.2
53698;PMS7003;39591;53.952;27.612;2023-03-01T05:51:33;0.7;0.3;0.1
53698;PMS7003;39591;53.952;27.612;2023-03-01T05:56:33;0.6;0.2;0.1
53698;PMS7003;39591;53.952;27.612;2023-03-01T06:01:11;0.3;0;0
53698;PMS7003;39591;53.952;27.612;2023-03-01T06:06:41;0.2;0;0
53698;PMS7003;39591;53.952;27.612;2023-03-01T06:11:59;0.1;0;0
53698;PMS7003;39591;53.952;27.612;2023-03-01T06:16:43;0.1;0.1;0.1
53698;PMS7003;39591;53.952;27.612;2023-03-01T06:21:35;0.5;0;0
53698;PMS7003;39591;53.952;27.612;2023-03-01T06:26:09;0.3;0;0
53698;PMS7003;39591;53.952;27.612;2023-03-01T06:31:19;0.7;0.1;0.1
53698;PMS7003;39591;53.952;27.612;2023-03-01T06:36:59;0.5;0.1;0
53698;PMS7003;39591;53.952;27.612;2023-03-01T06:41:41;0.3;0.1;0
53698;PMS7003;39591;53.952;27.612;2023-03-01T06:46:35;1.2;0.4;0.4
53698;PMS7003;39591;53.952;27.612;2023-03-01T06:51:21;0.9;0.4;0.3
53698;PMS7003;39591;53.952;27.612;2023-03-01T06:56:46;0.6;0.5;0.2
53698;PMS7003;39591;53.952;27.612;2023-03-01T07:01:59;0.8;0.7;0.1
53698;PMS7003;39591;53.952;27.612;2023-03-01T07:06:45;0.2;0;0
53698;PMS7003;39591;53.952;27.612;2023-03-01T07:11:35;0.1;0.1;0
53698;PMS7003;39591;53.952;27.612;2023-03-01T07:16:37;0.2;0;0
53698;PMS7003;39591;53.952;27.612;2023-03-01T07:21:47;0.4;0.1;0
53698;PMS7003;39591;53.952;27.612;2023-03-01T07:27:03;1.1;0.2;0.1
53698;PMS7003;39591;53.952;27.612;2023-03-01T07:31:47;0.4;0.2;0.2
53698;PMS7003;39591;53.952;27.612;2023-03-01T07:36:51;1.3;0.1;0.1
53698;PMS7003;39591;53.952;27.612;2023-03-01T07:41:37;0.5;0.1;0
53698;PMS7003;39591;53.952;27.612;2023-03-01T07:46:47;0.5;0.2;0.1
53698;PMS7003;39591;53.952;27.612;2023-03-01T07:52:03;1.1;0.2;0.1
53698;PMS7003;39591;53.952;27.612;2023-03-01T07:56:47;0.6;0.2;0.1
53698;PMS7003;39591;53.952;27.612;2023-03-01T08:01:35;0.1;0.1;0
53698;PMS7003;39591;53.952;27.612;2023-03-01T08:06:19;0.3;0;0
53698;PMS7003;39591;53.952;27.612;2023-03-01T08:11:45;0.4;0.1;0
53698;PMS7003;39591;53.952;27.612;2023-03-01T08:17:01;1;0.1;0
53698;PMS7003;39591;53.952;27.612;2023-03-01T08:21:33;0.5;0.1;0.1
53698;PMS7003;39591;53.952;27.612;2023-03-01T08:26:33;1.1;0.2;0.1
53698;PMS7003;39591;53.952;27.612;2023-03-01T08:31:13;0.7;0.1;0
53698;PMS7003;39591;53.952;27.612;2023-03-01T08:36:47;0.7;0.1;0.1
53698;PMS7003;39591;53.952;27.612;2023-03-01T08:42:01;0.5;0;0
53698;PMS7003;39591;53.952;27.612;2023-03-01T08:46:47;1.4;0.3;0.2
53698;PMS7003;39591;53.952;27.612;2023-03-01T08:51:35;0.5;0;0
53698;PMS7003;39591;53.952;27.612;2023-03-01T08:56:09;1.8;0.4;0.1
53698;PMS7003;39591;53.952;27.612;2023-03-01T09:01:45;1.2;0.3;0.2
53698;PMS7003;39591;53.952;27.612;2023-03-01T09:07:01;0.9;0.3;0.2
53698;PMS7003;39591;53.952;27.612;2023-03-01T09:11:45;1.1;0.2;0.1
53698;PMS7003;39591;53.952;27.612;2023-03-01T09:16:35;0.9;0.5;0.1
53698;PMS7003;39591;53.952;27.612;2023-03-01T09:21:23;0.9;0.3;0.2
53698;PMS7003;39591;53.952;27.612;2023-03-01T09:27:01;1.2;0.5;0.3
53698;PMS7003;39591;53.952;27.612;2023-03-01T09:31:47;1.9;0.8;0.4
53698;PMS7003;39591;53.952;27.612;2023-03-01T09:36:11;2.2;0.5;0.4
53698;PMS7003;39591;53.952;27.612;2023-03-01T09:41:58;1.2;0.1;0
53698;PMS7003;39591;53.952;27.612;2023-03-01T09:46:20;0.4;0;0
53698;PMS7003;39591;53.952;27.612;2023-03-01T09:52:00;0.8;0.3;0.1
53698;PMS7003;39591;53.952;27.612;2023-03-01T09:56:51;0.7;0.2;0.1
53698;PMS7003;39591;53.952;27.612;2023-03-01T10:01:34;0.8;0.1;0.1
53698;PMS7003;39591;53.952;27.612;2023-03-01T10:06:33;0.5;0.1;0.1
53698;PMS7003;39591;53.952;27.612;2023-03-01T10:11:21;0.9;0.5;0.4
53698;PMS7003;39591;53.952;27.612;2023-03-01T10:17:00;0.9;0.4;0.3
53698;PMS7003;39591;53.952;27.612;2023-03-01T10:21:47;0.3;0.1;0
53698;PMS7003;39591;53.952;27.612;2023-03-01T10:26:38;0.5;0.1;0.1
53698;PMS7003;39591;53.952;27.612;2023-03-01T10:31:59;1.1;0.5;0.3
53698;PMS7003;39591;53.952;27.612;2023-03-01T10:36:09;1.1;0.2;0.1
53698;PMS7003;39591;53.952;27.612;2023-03-01T10:42:00;0.4;0.3;0.2
53698;PMS7003;39591;53.952;27.612;2023-03-01T10:46:45;1.6;1.2;1
53698;PMS7003;39591;53.952;27.612;2023-03-01T10:51:31;2;1;0.6
53698;PMS7003;39591;53.952;27.612;2023-03-01T10:57:00;2.2;0.8;0.6
53698;PMS7003;39591;53.952;27.612;2023-03-01T11:01:24;1.8;0.7;0.5
53698;PMS7003;39591;53.952;27.612;2023-03-01T11:07:00;1.1;0.6;0.2
53698;PMS7003;39591;53.952;27.612;2023-03-01T11:11:45;0.8;0.5;0.3
53698;PMS7003;39591;53.952;27.612;2023-03-01T11:16:34;1.3;0.5;0.2
53698;PMS7003;39591;53.952;27.612;2023-03-01T11:22:01;1.9;0.9;0.6
53698;PMS7003;39591;53.952;27.612;2023-03-01T11:26:09;0.9;0.3;0.1
53698;PMS7003;39591;53.952;27.612;2023-03-01T11:32:01;0.9;0.3;0.2
53698;PMS7003;39591;53.952;27.612;2023-03-01T11:36:44;1.3;0.9;0.6
53698;PMS7003;39591;53.952;27.612;2023-03-01T11:41:34;1.3;0.5;0.2
53698;PMS7003;39591;53.952;27.612;2023-03-01T11:47:05;3;1.5;1.2
53698;PMS7003;39591;53.952;27.612;2023-03-01T11:51:12;5;3.2;2.3
53698;PMS7003;39591;53.952;27.612;2023-03-01T11:57:00;1.8;1.2;0.9
53698;PMS7003;39591;53.952;27.612;2023-03-01T12:02:02;1;0.2;0.1
53698;PMS7003;39591;53.952;27.612;2023-03-01T12:06:34;0.4;0.3;0.1
53698;PMS7003;39591;53.952;27.612;2023-03-01T12:12:00;1.9;0.9;0.5
53698;PMS7003;39591;53.952;27.612;2023-03-01T12:16:13;1.6;0.8;0.6
53698;PMS7003;39591;53.952;27.612;2023-03-01T12:21:49;1.3;0.5;0.2
53698;PMS7003;39591;53.952;27.612;2023-03-01T12:26:44;1.2;0.7;0.4
53698;PMS7003;39591;53.952;27.612;2023-03-01T12:31:35;3.1;1.7;1.2
53698;PMS7003;39591;53.952;27.612;2023-03-01T12:37:01;1.1;0.9;0.6
53698;PMS7003;39591;53.952;27.612;2023-03-01T12:41:33;2.8;1.2;0.9
53698;PMS7003;39591;53.952;27.612;2023-03-01T12:47:01;8.9;6.4;5
53698;PMS7003;39591;53.952;27.612;2023-03-01T12:51:44;5.8;4.2;3.3
53698;PMS7003;39591;53.952;27.612;2023-03-01T12:56:32;7.3;5.6;4.2
53698;PMS7003;39591;53.952;27.612;2023-03-01T13:02:02;4.7;3.3;2.4
53698;PMS7003;39591;53.952;27.612;2023-03-01T13:06:10;2.5;2;1.5
53698;PMS7003;39591;53.952;27.612;2023-03-01T13:11:59;2.5;1.4;0.9
53698;PMS7003;39591;53.952;27.612;2023-03-01T13:16:59;2.1;1.3;1.1
53698;PMS7003;39591;53.952;27.612;2023-03-01T13:21:28;3.5;2.8;2.3
53698;PMS7003;39591;53.952;27.612;2023-03-01T13:27:29;3.4;2.3;1.7
53698;PMS7003;39591;53.952;27.612;2023-03-01T13:48:15;1.3;0.8;0.3
53698;PMS7003;39591;53.952;27.612;2023-03-01T14:08:27;0.7;0.5;0.5
53698;PMS7003;39591;53.952;27.612;2023-03-01T14:14:11;0.9;0.2;0.2
53698;PMS7003;39591;53.952;27.612;2023-03-01T14:18:42;1;0.5;0.4
53698;PMS7003;39591;53.952;27.612;2023-03-01T14:24:18;2.6;1.1;0.7
53698;PMS7003;39591;53.952;27.612;2023-03-01T14:28:56;3.5;2.8;2.1
53698;PMS7003;39591;53.952;27.612;2023-03-01T14:33:31;9.3;7.4;5.8
53698;PMS7003;39591;53.952;27.612;2023-03-01T14:39:16;11.8;9.7;7
53698;PMS7003;39591;53.952;27.612;2023-03-01T14:43:43;6.3;4.3;3.5
53698;PMS7003;39591;53.952;27.612;2023-03-01T14:48:32;6.2;4.9;3.5
53698;PMS7003;39591;53.952;27.612;2023-03-01T14:53:56;6.7;4.9;3.7
53698;PMS7003;39591;53.952;27.612;2023-03-01T14:58:21;5.9;4.2;3.2
53698;PMS7003;39591;53.952;27.612;2023-03-01T15:04:10;5;4.2;3.2
53698;PMS7003;39591;53.952;27.612;2023-03-01T15:08:30;3.2;2.1;1.6
53698;PMS7003;39591;53.952;27.612;2023-03-01T15:13:44;2;0.8;0.6
53698;PMS7003;39591;53.952;27.612;2023-03-01T15:18:57;1.4;0.9;0.7
53698;PMS7003;39591;53.952;27.612;2023-03-01T15:23:21;2.7;1.8;1.4
53698;PMS7003;39591;53.952;27.612;2023-03-01T15:29:13;2.1;1.7;1.1
53698;PMS7003;39591;53.952;27.612;2023-03-01T15:33:42;2.9;2;1.5
53698;PMS7003;39591;53.952;27.612;2023-03-01T15:38:25;1.9;1.3;0.7
53698;PMS7003;39591;53.952;27.612;2023-03-01T15:43:56;3.7;1.9;1.6
53698;PMS7003;39591;53.952;27.612;2023-03-01T15:48:32;8.9;5.5;3.9
53698;PMS7003;39591;53.952;27.612;2023-03-01T15:54:13;4.3;3.1;2.2
53698;PMS7003;39591;53.952;27.612;2023-03-01T15:58:30;3.5;2.6;2
53698;PMS7003;39591;53.952;27.612;2023-03-01T16:03:30;2.5;1.3;0.8
53698;PMS7003;39591;53.952;27.612;2023-03-01T16:08:56;2.5;1.4;0.9
53698;PMS7003;39591;53.952;27.612;2023-03-01T16:13:32;2.1;1.2;0.8
53698;PMS7003;39591;53.952;27.612;2023-03-01T16:19:10;3.3;1.3;0.9
53698;PMS7003;39591;53.952;27.612;2023-03-01T16:23:43;2.3;0.5;0.3
53698;PMS7003;39591;53.952;27.612;2023-03-01T16:28:45;1.8;0.9;0.7
53698;PMS7003;39591;53.952;27.612;2023-03-01T16:33:56;1.7;1;0.6
53698;PMS7003;39591;53.952;27.612;2023-03-01T16:38:20;1.6;0.8;0.6
53698;PMS7003;39591;53.952;27.612;2023-03-01T16:44:08;2.2;0.9;0.5
53698;PMS7003;39591;53.952;27.612;2023-03-01T16:48:42;2.2;0.7;0.2
53698;PMS7003;39591;53.952;27.612;2023-03-01T16:53:20;1.7;0.7;0.5
53698;PMS7003;39591;53.952;27.612;2023-03-01T16:58:54;2.9;1.8;1.5
53698;PMS7003;39591;53.952;27.612;2023-03-01T17:03:44;2.1;1.1;0.7
53698;PMS7003;39591;53.952;27.612;2023-03-01T17:09:08;1.8;0.8;0.7
53698;PMS7003;39591;53.952;27.612;2023-03-01T17:13:42;1.3;0.7;0.5
53698;PMS7003;39591;53.952;27.612;2023-03-01T17:18:58;1.8;0.9;0.5
53698;PMS7003;39591;53.952;27.612;2023-03-01T17:24:10;1;0.4;0.2
53698;PMS7003;39591;53.952;27.612;2023-03-01T17:28:20;2.1;0.9;0.6
53698;PMS7003;39591;53.952;27.612;2023-03-01T17:33:48;2.3;1.5;1.1
53698;PMS7003;39591;53.952;27.612;2023-03-01T17:38:30;2.5;1.3;0.8
53698;PMS7003;39591;53.952;27.612;2023-03-01T17:43:56;2.2;1.4;1
53698;PMS7003;39591;53.952;27.612;2023-03-01T17:49:10;2;1.7;0.7
53698;PMS7003;39591;53.952;27.612;2023-03-01T17:53:30;2.1;1.1;0.8
53698;PMS7003;39591;53.952;27.612;2023-03-01T17:59:00;3.2;1.3;0.9
53698;PMS7003;39591;53.952;27.612;2023-03-01T18:03:44;2.9;1.1;0.8
53698;PMS7003;39591;53.952;27.612;2023-03-01T18:09:00;3.8;1.2;0.9
53698;PMS7003;39591;53.952;27.612;2023-03-01T18:14:00;3.2;1.7;0.9
53698;PMS7003;39591;53.952;27.612;2023-03-01T18:18:20;2.3;1.4;1
53698;PMS7003;39591;53.952;27.612;2023-03-01T18:23:58;2.2;1.2;0.8
53698;PMS7003;39591;53.952;27.612;2023-03-01T18:28:44;5.6;3.5;2.9
53698;PMS7003;39591;53.952;27.612;2023-03-01T18:33:49;7.6;4.8;3.2
53698;PMS7003;39591;53.952;27.612;2023-03-01T18:39:12;2.7;1.6;1.1
53698;PMS7003;39591;53.952;27.612;2023-03-01T18:43:58;3.1;1.1;0.7
53698;PMS7003;39591;53.952;27.612;2023-03-01T18:48:56;3.8;1.7;1.2
53698;PMS7003;39591;53.952;27.612;2023-03-01T18:53:30;3.5;1.6;1
53698;PMS7003;39591;53.952;27.612;2023-03-01T18:59:00;3.2;2.1;1.2
53698;PMS7003;39591;53.952;27.612;2023-03-01T19:04:12;2.1;1.9;1.3
53698;PMS7003;39591;53.952;27.612;2023-03-01T19:08:32;3.5;1.8;1.1
53698;PMS7003;39591;53.952;27.612;2023-03-01T19:14:12;3.5;1.4;1.1
53698;PMS7003;39591;53.952;27.612;2023-03-01T19:18:20;1.7;1.3;1.1
53698;PMS7003;39591;53.952;27.612;2023-03-01T19:24:00;2;1.3;0.8
53698;PMS7003;39591;53.952;27.612;2023-03-01T19:29:10;2.4;1.4;1.2
53698;PMS7003;39591;53.952;27.612;2023-03-01T19:33:32;2.6;1.2;0.8
53698;PMS7003;39591;53.952;27.612;2023-03-01T19:38:56;2.6;1.6;1
53698;PMS7003;39591;53.952;27.612;2023-03-01T19:43:42;1.5;0.9;0.6
53698;PMS7003;39591;53.952;27.612;2023-03-01T19:48:56;3.5;1.2;0.9
53698;PMS7003;39591;53.952;27.612;2023-03-01T19:54:10;3.1;1.6;1.1
53698;PMS7003;39591;53.952;27.612;2023-03-01T19:58:20;2.9;1.4;0.9
53698;PMS7003;39591;53.952;27.612;2023-03-01T20:03:58;1.8;1.1;0.7
53698;PMS7003;39591;53.952;27.612;2023-03-01T20:08:40;1.3;1;0.8
53698;PMS7003;39591;53.952;27.612;2023-03-01T20:13:58;2.9;1.1;0.7
53698;PMS7003;39591;53.952;27.612;2023-03-01T20:19:10;3.4;1.3;0.9
53698;PMS7003;39591;53.952;27.612;2023-03-01T20:23:32;1.3;0.9;0.5
53698;PMS7003;39591;53.952;27.612;2023-03-01T20:29:00;1.9;1.2;0.7
53698;PMS7003;39591;53.952;27.612;2023-03-01T20:33:58;5;3.9;3
53698;PMS7003;39591;53.952;27.612;2023-03-01T20:39:10;3.2;1.3;0.8
53698;PMS7003;39591;53.952;27.612;2023-03-01T20:44:10;3.1;2.3;1.5
53698;PMS7003;39591;53.952;27.612;2023-03-01T20:48:20;2.7;1.1;0.8
53698;PMS7003;39591;53.952;27.612;2023-03-01T20:53:58;2.3;1.3;0.7
53698;PMS7003;39591;53.952;27.612;2023-03-01T20:58:20;2.5;1.6;0.9
53698;PMS7003;39591;53.952;27.612;2023-03-01T21:04:12;3.1;1.4;1
53698;PMS7003;39591;53.952;27.612;2023-03-01T21:08:42;2.3;1.1;0.7
53698;PMS7003;39591;53.952;27.612;2023-03-01T21:13:20;2;1.4;1
53698;PMS7003;39591;53.952;27.612;2023-03-01T21:18:46;2.4;1.3;1
53698;PMS7003;39591;53.952;27.612;2023-03-01T21:23:58;4;1.3;0.8
53698;PMS7003;39591;53.952;27.612;2023-03-01T21:29:12;2.3;1.6;1.1
53698;PMS7003;39591;53.952;27.612;2023-03-01T21:33:44;3.1;1.4;1.1
53698;PMS7003;39591;53.952;27.612;2023-03-01T21:38:32;2.1;1.4;1.1
53698;PMS7003;39591;53.952;27.612;2023-03-01T21:43:44;2;1.6;1.2
53698;PMS7003;39591;53.952;27.612;2023-03-01T21:48:58;2.6;1.1;0.8
53698;PMS7003;39591;53.952;27.612;2023-03-01T21:54:10;3.5;1.8;1.2
53698;PMS7003;39591;53.952;27.612;2023-03-01T21:58:44;2.1;1.4;0.9
53698;PMS7003;39591;53.952;27.612;2023-03-01T22:03:20;3.4;1.7;1.1
53698;PMS7003;39591;53.952;27.612;2023-03-01T22:08:44;3.4;1.6;1
53698;PMS7003;39591;53.952;27.612;2023-03-01T22:13:56;2.8;1.7;1.3
53698;PMS7003;39591;53.952;27.612;2023-03-01T22:19:10;4.3;2;1.3
53698;PMS7003;39591;53.952;27.612;2023-03-01T22:23:56;2.3;1.1;0.8
53698;PMS7003;39591;53.952;27.612;2023-03-01T22:28:20;2.4;1.1;0.8
53698;PMS7003;39591;53.952;27.612;2023-03-01T22:33:56;2.8;1.2;0.9
53698;PMS7003;39591;53.952;27.612;2023-03-01T22:38:56;2.2;1.2;0.6
53698;PMS7003;39591;53.952;27.612;2023-03-01T22:44:08;3.8;1.7;1.3
53698;PMS7003;39591;53.952;27.612;2023-03-01T22:48:44;2.7;1.4;0.9
53698;PMS7003;39591;53.952;27.612;2023-03-01T22:53:20;2.5;1.5;1.1
53698;PMS7003;39591;53.952;27.612;2023-03-01T22:58:42;2.5;1.3;0.9
53698;PMS7003;39591;53.952;27.612;2023-03-01T23:03:44;3;1.6;1.1
53698;PMS7003;39591;53.952;27.612;2023-03-01T23:09:10;2.6;2.1;1.3
53698;PMS7003;39591;53.952;27.612;2023-03-01T23:13:32;2.4;1.6;1.1
53698;PMS7003;39591;53.952;27.612;2023-03-01T23:18:20;3.6;1.8;1.4
53698;PMS7003;39591;53.952;27.612;2023-03-01T23:23:32;3.6;2;1.4
53698;PMS7003;39591;53.952;27.612;2023-03-01T23:28:56;2.9;1.8;1.4
53698;PMS7003;39591;53.952;27.612;2023-03-01T23:34:10;3.4;2.4;1.9
53698;PMS7003;39591;53.952;27.612;2023-03-01T23:38:32;4.5;2.4;1.7
53698;PMS7003;39591;53.952;27.612;2023-03-01T23:43:20;2.6;2.3;1.7
53698;PMS7003;39591;53.952;27.612;2023-03-01T23:48:42;2.8;1.9;1.6
53698;PMS7003;39591;53.952;27.612;2023-03-01T23:53:56;4.6;2.6;1.8
53698;PMS7003;39591;53.952;27.612;2023-03-01T23:59:11;4.6;2.3;1.8
